Terminal Aerodrome Forecast
Issued by NWS Charleston, WV

Current Version | Previous Version | Graphics & Text | Print | Product List | Glossary On
Versions: 1 2 3 4 5 6 7 8 9 10 11 12 13 14 15 16 17 18 19 20 21 22 23 24 25
000
FTUS41 KRLX 270916 AAA
TAFPKB
TAF AMD
KPKB 270916Z 2709/2806 33006KT P6SM OVC014
     FM271300 03005KT 1 1/2SM BR OVC008
     FM271330 03004KT 5SM BR BKN008
     FM271400 03004KT P6SM BKN012
     FM271600 VRB03KT P6SM SCT050
     FM272200 VRB03KT 6SM -SHRA BKN035
     FM280400 VRB03KT P6SM BKN080=

USA.gov is the U.S. government's official web portal to all federal, state and local government web resources and services.